sensor_id;sensor_type;location;lat;lon;timestamp;P1;durP1;ratioP1;P2;durP2;ratioP2
57856;SDS011;43683;48.650;9.290;2023-05-07T00:00:15;5.50;;;3.75;;
57856;SDS011;43683;48.650;9.290;2023-05-07T00:02:43;7.35;;;4.20;;
57856;SDS011;43683;48.650;9.290;2023-05-07T00:05:09;6.72;;;3.92;;
57856;SDS011;43683;48.650;9.290;2023-05-07T00:07:35;7.25;;;3.97;;
57856;SDS011;43683;48.650;9.290;2023-05-07T00:10:01;5.78;;;3.75;;
57856;SDS011;43683;48.650;9.290;2023-05-07T00:12:27;6.43;;;3.88;;
57856;SDS011;43683;48.650;9.290;2023-05-07T00:14:56;5.63;;;3.30;;
57856;SDS011;43683;48.650;9.290;2023-05-07T00:17:22;5.72;;;3.67;;
57856;SDS011;43683;48.650;9.290;2023-05-07T00:19:48;6.53;;;3.47;;
57856;SDS011;43683;48.650;9.290;2023-05-07T00:22:13;5.30;;;3.22;;
57856;SDS011;43683;48.650;9.290;2023-05-07T00:24:39;5.53;;;3.25;;
57856;SDS011;43683;48.650;9.290;2023-05-07T00:27:04;9.02;;;3.85;;
57856;SDS011;43683;48.650;9.290;2023-05-07T00:29:30;6.40;;;3.53;;
57856;SDS011;43683;48.650;9.290;2023-05-07T00:31:55;5.55;;;3.60;;
57856;SDS011;43683;48.650;9.290;2023-05-07T00:34:21;6.53;;;4.18;;
57856;SDS011;43683;48.650;9.290;2023-05-07T00:36:47;6.28;;;3.67;;
57856;SDS011;43683;48.650;9.290;2023-05-07T00:39:13;6.30;;;3.75;;
57856;SDS011;43683;48.650;9.290;2023-05-07T00:41:38;7.50;;;3.85;;
57856;SDS011;43683;48.650;9.290;2023-05-07T00:44:04;6.55;;;3.75;;
57856;SDS011;43683;48.650;9.290;2023-05-07T00:46:30;6.38;;;3.83;;
57856;SDS011;43683;48.650;9.290;2023-05-07T00:48:56;6.35;;;3.80;;
57856;SDS011;43683;48.650;9.290;2023-05-07T00:51:22;6.78;;;3.95;;
57856;SDS011;43683;48.650;9.290;2023-05-07T00:53:50;6.47;;;4.40;;
57856;SDS011;43683;48.650;9.290;2023-05-07T00:56:15;5.97;;;4.03;;
57856;SDS011;43683;48.650;9.290;2023-05-07T00:58:41;6.00;;;4.13;;
57856;SDS011;43683;48.650;9.290;2023-05-07T01:01:07;5.13;;;3.40;;
57856;SDS011;43683;48.650;9.290;2023-05-07T01:03:33;7.07;;;3.70;;
57856;SDS011;43683;48.650;9.290;2023-05-07T01:05:58;6.57;;;3.67;;
57856;SDS011;43683;48.650;9.290;2023-05-07T01:08:26;6.05;;;3.55;;
57856;SDS011;43683;48.650;9.290;2023-05-07T01:10:54;7.57;;;3.80;;
57856;SDS011;43683;48.650;9.290;2023-05-07T01:13:21;6.90;;;4.37;;
57856;SDS011;43683;48.650;9.290;2023-05-07T01:15:47;7.43;;;4.20;;
57856;SDS011;43683;48.650;9.290;2023-05-07T01:18:13;5.47;;;3.70;;
57856;SDS011;43683;48.650;9.290;2023-05-07T01:20:38;6.72;;;4.15;;
57856;SDS011;43683;48.650;9.290;2023-05-07T01:23:04;6.20;;;3.95;;
57856;SDS011;43683;48.650;9.290;2023-05-07T01:25:31;6.75;;;3.92;;
57856;SDS011;43683;48.650;9.290;2023-05-07T01:27:57;6.72;;;3.85;;
57856;SDS011;43683;48.650;9.290;2023-05-07T01:30:24;6.38;;;4.13;;
57856;SDS011;43683;48.650;9.290;2023-05-07T01:32:51;7.38;;;4.38;;
57856;SDS011;43683;48.650;9.290;2023-05-07T01:35:24;5.72;;;3.95;;
57856;SDS011;43683;48.650;9.290;2023-05-07T01:37:53;8.75;;;3.90;;
57856;SDS011;43683;48.650;9.290;2023-05-07T01:40:19;6.60;;;3.80;;
57856;SDS011;43683;48.650;9.290;2023-05-07T01:42:45;5.60;;;3.70;;
57856;SDS011;43683;48.650;9.290;2023-05-07T01:45:13;7.68;;;4.25;;
57856;SDS011;43683;48.650;9.290;2023-05-07T01:47:38;6.85;;;4.00;;
57856;SDS011;43683;48.650;9.290;2023-05-07T01:50:07;7.05;;;4.25;;
57856;SDS011;43683;48.650;9.290;2023-05-07T01:52:34;7.13;;;4.45;;
57856;SDS011;43683;48.650;9.290;2023-05-07T01:54:59;7.20;;;4.47;;
57856;SDS011;43683;48.650;9.290;2023-05-07T01:57:25;8.65;;;4.45;;
57856;SDS011;43683;48.650;9.290;2023-05-07T01:59:50;9.02;;;5.05;;
57856;SDS011;43683;48.650;9.290;2023-05-07T02:02:16;6.80;;;4.15;;
57856;SDS011;43683;48.650;9.290;2023-05-07T02:04:41;8.23;;;4.15;;
57856;SDS011;43683;48.650;9.290;2023-05-07T02:07:07;7.45;;;4.22;;
57856;SDS011;43683;48.650;9.290;2023-05-07T02:09:32;6.45;;;4.15;;
57856;SDS011;43683;48.650;9.290;2023-05-07T02:11:58;5.53;;;3.53;;
57856;SDS011;43683;48.650;9.290;2023-05-07T02:14:23;6.85;;;4.07;;
57856;SDS011;43683;48.650;9.290;2023-05-07T02:16:50;5.80;;;3.90;;
57856;SDS011;43683;48.650;9.290;2023-05-07T02:19:16;6.68;;;3.45;;
57856;SDS011;43683;48.650;9.290;2023-05-07T02:21:41;5.78;;;3.50;;
57856;SDS011;43683;48.650;9.290;2023-05-07T02:24:07;6.35;;;3.50;;
57856;SDS011;43683;48.650;9.290;2023-05-07T02:26:32;5.75;;;3.22;;
57856;SDS011;43683;48.650;9.290;2023-05-07T02:28:59;5.47;;;3.70;;
57856;SDS011;43683;48.650;9.290;2023-05-07T02:31:24;5.43;;;3.75;;
57856;SDS011;43683;48.650;9.290;2023-05-07T02:33:50;5.97;;;3.83;;
57856;SDS011;43683;48.650;9.290;2023-05-07T02:36:15;6.35;;;3.65;;
57856;SDS011;43683;48.650;9.290;2023-05-07T02:38:41;5.28;;;3.70;;
57856;SDS011;43683;48.650;9.290;2023-05-07T02:41:07;6.40;;;3.83;;
57856;SDS011;43683;48.650;9.290;2023-05-07T02:43:32;6.43;;;3.72;;
57856;SDS011;43683;48.650;9.290;2023-05-07T02:46:04;6.88;;;3.92;;
57856;SDS011;43683;48.650;9.290;2023-05-07T02:48:31;6.47;;;4.03;;
57856;SDS011;43683;48.650;9.290;2023-05-07T02:50:58;6.45;;;3.47;;
57856;SDS011;43683;48.650;9.290;2023-05-07T02:53:24;6.18;;;4.00;;
57856;SDS011;43683;48.650;9.290;2023-05-07T02:55:56;7.07;;;4.00;;
57856;SDS011;43683;48.650;9.290;2023-05-07T02:58:22;5.68;;;3.67;;
57856;SDS011;43683;48.650;9.290;2023-05-07T03:00:47;7.63;;;3.67;;
57856;SDS011;43683;48.650;9.290;2023-05-07T03:03:13;8.57;;;4.38;;
57856;SDS011;43683;48.650;9.290;2023-05-07T03:05:39;5.28;;;3.60;;
57856;SDS011;43683;48.650;9.290;2023-05-07T03:08:05;5.07;;;3.40;;
57856;SDS011;43683;48.650;9.290;2023-05-07T03:10:31;5.18;;;3.10;;
57856;SDS011;43683;48.650;9.290;2023-05-07T03:12:56;6.55;;;3.42;;
57856;SDS011;43683;48.650;9.290;2023-05-07T03:15:22;6.18;;;3.95;;
57856;SDS011;43683;48.650;9.290;2023-05-07T03:17:47;5.72;;;3.67;;
57856;SDS011;43683;48.650;9.290;2023-05-07T03:20:13;5.72;;;3.50;;
57856;SDS011;43683;48.650;9.290;2023-05-07T03:22:39;6.00;;;3.75;;
57856;SDS011;43683;48.650;9.290;2023-05-07T03:25:05;5.55;;;3.45;;
57856;SDS011;43683;48.650;9.290;2023-05-07T03:27:31;5.35;;;3.78;;
57856;SDS011;43683;48.650;9.290;2023-05-07T03:29:57;5.43;;;3.40;;
57856;SDS011;43683;48.650;9.290;2023-05-07T03:32:22;4.97;;;3.53;;
57856;SDS011;43683;48.650;9.290;2023-05-07T03:34:48;6.78;;;3.90;;
57856;SDS011;43683;48.650;9.290;2023-05-07T03:37:13;5.32;;;3.67;;
57856;SDS011;43683;48.650;9.290;2023-05-07T03:39:39;6.70;;;3.65;;
57856;SDS011;43683;48.650;9.290;2023-05-07T03:42:04;5.65;;;3.65;;
57856;SDS011;43683;48.650;9.290;2023-05-07T03:44:30;6.72;;;3.92;;
57856;SDS011;43683;48.650;9.290;2023-05-07T03:46:55;6.43;;;3.50;;
57856;SDS011;43683;48.650;9.290;2023-05-07T03:49:21;7.00;;;4.22;;
57856;SDS011;43683;48.650;9.290;2023-05-07T03:51:46;7.13;;;3.55;;
57856;SDS011;43683;48.650;9.290;2023-05-07T03:54:12;6.00;;;3.55;;
57856;SDS011;43683;48.650;9.290;2023-05-07T03:56:38;7.93;;;3.47;;
57856;SDS011;43683;48.650;9.290;2023-05-07T03:59:03;4.80;;;3.55;;
57856;SDS011;43683;48.650;9.290;2023-05-07T04:01:29;5.68;;;3.30;;
57856;SDS011;43683;48.650;9.290;2023-05-07T04:03:55;4.88;;;3.20;;
57856;SDS011;43683;48.650;9.290;2023-05-07T04:06:20;8.07;;;3.80;;
57856;SDS011;43683;48.650;9.290;2023-05-07T04:08:46;6.82;;;3.70;;
57856;SDS011;43683;48.650;9.290;2023-05-07T04:11:11;6.07;;;3.95;;
57856;SDS011;43683;48.650;9.290;2023-05-07T04:13:37;7.35;;;3.53;;
57856;SDS011;43683;48.650;9.290;2023-05-07T04:16:03;7.20;;;3.80;;
57856;SDS011;43683;48.650;9.290;2023-05-07T04:18:30;7.30;;;3.78;;
57856;SDS011;43683;48.650;9.290;2023-05-07T04:20:55;6.47;;;3.85;;
57856;SDS011;43683;48.650;9.290;2023-05-07T04:23:21;6.65;;;3.85;;
57856;SDS011;43683;48.650;9.290;2023-05-07T04:25:46;6.38;;;3.40;;
57856;SDS011;43683;48.650;9.290;2023-05-07T04:28:12;5.47;;;3.95;;
57856;SDS011;43683;48.650;9.290;2023-05-07T04:30:37;5.97;;;3.78;;
57856;SDS011;43683;48.650;9.290;2023-05-07T04:33:03;6.93;;;3.65;;
57856;SDS011;43683;48.650;9.290;2023-05-07T04:35:29;5.00;;;3.50;;
57856;SDS011;43683;48.650;9.290;2023-05-07T04:37:54;6.30;;;3.90;;
57856;SDS011;43683;48.650;9.290;2023-05-07T04:40:20;5.03;;;3.72;;
57856;SDS011;43683;48.650;9.290;2023-05-07T04:42:45;5.43;;;3.42;;
57856;SDS011;43683;48.650;9.290;2023-05-07T04:45:11;6.07;;;3.47;;
57856;SDS011;43683;48.650;9.290;2023-05-07T04:47:37;6.00;;;3.65;;
57856;SDS011;43683;48.650;9.290;2023-05-07T04:50:03;8.23;;;3.97;;
57856;SDS011;43683;48.650;9.290;2023-05-07T04:52:30;7.18;;;4.00;;
57856;SDS011;43683;48.650;9.290;2023-05-07T04:54:56;5.82;;;3.78;;
57856;SDS011;43683;48.650;9.290;2023-05-07T04:57:24;7.18;;;4.18;;
57856;SDS011;43683;48.650;9.290;2023-05-07T04:59:50;5.45;;;4.25;;
57856;SDS011;43683;48.650;9.290;2023-05-07T05:02:15;7.45;;;4.10;;
57856;SDS011;43683;48.650;9.290;2023-05-07T05:04:41;6.90;;;3.83;;
57856;SDS011;43683;48.650;9.290;2023-05-07T05:07:06;7.53;;;3.97;;
57856;SDS011;43683;48.650;9.290;2023-05-07T05:09:32;5.82;;;3.95;;
57856;SDS011;43683;48.650;9.290;2023-05-07T05:11:57;6.90;;;4.10;;
57856;SDS011;43683;48.650;9.290;2023-05-07T05:14:24;6.28;;;4.18;;
57856;SDS011;43683;48.650;9.290;2023-05-07T05:16:49;8.88;;;5.18;;
57856;SDS011;43683;48.650;9.290;2023-05-07T05:19:15;9.38;;;3.67;;
57856;SDS011;43683;48.650;9.290;2023-05-07T05:21:41;6.38;;;4.15;;
57856;SDS011;43683;48.650;9.290;2023-05-07T05:24:06;6.47;;;3.75;;
57856;SDS011;43683;48.650;9.290;2023-05-07T05:26:32;8.95;;;3.85;;
57856;SDS011;43683;48.650;9.290;2023-05-07T05:28:57;8.45;;;3.72;;
57856;SDS011;43683;48.650;9.290;2023-05-07T05:31:23;6.07;;;3.75;;
57856;SDS011;43683;48.650;9.290;2023-05-07T05:33:48;5.40;;;3.53;;
57856;SDS011;43683;48.650;9.290;2023-05-07T05:36:14;5.82;;;4.05;;
57856;SDS011;43683;48.650;9.290;2023-05-07T05:38:40;8.35;;;4.55;;
57856;SDS011;43683;48.650;9.290;2023-05-07T05:41:05;7.00;;;4.03;;
57856;SDS011;43683;48.650;9.290;2023-05-07T05:43:31;7.10;;;4.30;;
57856;SDS011;43683;48.650;9.290;2023-05-07T05:45:56;5.22;;;3.67;;
57856;SDS011;43683;48.650;9.290;2023-05-07T05:48:22;8.05;;;4.10;;
57856;SDS011;43683;48.650;9.290;2023-05-07T05:50:48;6.35;;;3.85;;
57856;SDS011;43683;48.650;9.290;2023-05-07T05:53:14;5.32;;;3.67;;
57856;SDS011;43683;48.650;9.290;2023-05-07T05:55:40;6.13;;;3.80;;
57856;SDS011;43683;48.650;9.290;2023-05-07T05:58:06;7.35;;;3.60;;
57856;SDS011;43683;48.650;9.290;2023-05-07T06:00:32;6.10;;;3.65;;
57856;SDS011;43683;48.650;9.290;2023-05-07T06:02:58;6.28;;;3.47;;
57856;SDS011;43683;48.650;9.290;2023-05-07T06:05:23;5.10;;;3.22;;
57856;SDS011;43683;48.650;9.290;2023-05-07T06:07:48;5.22;;;3.28;;
57856;SDS011;43683;48.650;9.290;2023-05-07T06:10:14;5.63;;;3.08;;
57856;SDS011;43683;48.650;9.290;2023-05-07T06:12:39;4.75;;;3.35;;
57856;SDS011;43683;48.650;9.290;2023-05-07T06:15:05;5.43;;;3.33;;
57856;SDS011;43683;48.650;9.290;2023-05-07T06:17:31;5.80;;;3.33;;
57856;SDS011;43683;48.650;9.290;2023-05-07T06:19:57;6.88;;;3.67;;
57856;SDS011;43683;48.650;9.290;2023-05-07T06:22:22;5.20;;;3.30;;
57856;SDS011;43683;48.650;9.290;2023-05-07T06:24:48;4.70;;;3.13;;
57856;SDS011;43683;48.650;9.290;2023-05-07T06:27:13;4.43;;;3.10;;
57856;SDS011;43683;48.650;9.290;2023-05-07T06:29:39;5.43;;;3.10;;
57856;SDS011;43683;48.650;9.290;2023-05-07T06:34:33;4.15;;;2.80;;
57856;SDS011;43683;48.650;9.290;2023-05-07T06:36:59;7.13;;;3.60;;
57856;SDS011;43683;48.650;9.290;2023-05-07T06:39:24;5.45;;;3.28;;
57856;SDS011;43683;48.650;9.290;2023-05-07T06:41:50;5.45;;;3.25;;
57856;SDS011;43683;48.650;9.290;2023-05-07T06:44:15;5.45;;;3.40;;
57856;SDS011;43683;48.650;9.290;2023-05-07T06:46:41;7.70;;;3.65;;
57856;SDS011;43683;48.650;9.290;2023-05-07T06:49:06;5.00;;;3.63;;
57856;SDS011;43683;48.650;9.290;2023-05-07T06:51:32;4.88;;;3.20;;
57856;SDS011;43683;48.650;9.290;2023-05-07T06:53:58;6.82;;;3.65;;
57856;SDS011;43683;48.650;9.290;2023-05-07T06:56:23;5.55;;;3.13;;
57856;SDS011;43683;48.650;9.290;2023-05-07T06:58:49;6.10;;;3.50;;
57856;SDS011;43683;48.650;9.290;2023-05-07T07:01:15;6.15;;;3.30;;
57856;SDS011;43683;48.650;9.290;2023-05-07T07:03:41;5.45;;;3.45;;
57856;SDS011;43683;48.650;9.290;2023-05-07T07:06:06;5.47;;;3.58;;
57856;SDS011;43683;48.650;9.290;2023-05-07T07:08:32;4.45;;;3.00;;
57856;SDS011;43683;48.650;9.290;2023-05-07T07:10:58;4.47;;;3.40;;
57856;SDS011;43683;48.650;9.290;2023-05-07T07:13:23;7.20;;;3.10;;
57856;SDS011;43683;48.650;9.290;2023-05-07T07:15:49;4.22;;;3.10;;
57856;SDS011;43683;48.650;9.290;2023-05-07T07:18:14;5.30;;;3.00;;
57856;SDS011;43683;48.650;9.290;2023-05-07T07:20:40;4.55;;;2.60;;
57856;SDS011;43683;48.650;9.290;2023-05-07T07:23:05;5.90;;;3.20;;
57856;SDS011;43683;48.650;9.290;2023-05-07T07:25:31;5.13;;;3.08;;
57856;SDS011;43683;48.650;9.290;2023-05-07T07:27:57;4.55;;;3.00;;
57856;SDS011;43683;48.650;9.290;2023-05-07T07:30:22;5.00;;;2.70;;
57856;SDS011;43683;48.650;9.290;2023-05-07T07:32:48;4.55;;;2.80;;
57856;SDS011;43683;48.650;9.290;2023-05-07T07:35:13;5.60;;;3.40;;
57856;SDS011;43683;48.650;9.290;2023-05-07T07:37:39;4.15;;;2.72;;
57856;SDS011;43683;48.650;9.290;2023-05-07T07:40:04;4.32;;;2.50;;
57856;SDS011;43683;48.650;9.290;2023-05-07T07:42:31;4.32;;;2.65;;
57856;SDS011;43683;48.650;9.290;2023-05-07T07:44:56;3.45;;;2.80;;
57856;SDS011;43683;48.650;9.290;2023-05-07T07:47:22;3.83;;;2.25;;
57856;SDS011;43683;48.650;9.290;2023-05-07T07:49:48;4.30;;;2.72;;
57856;SDS011;43683;48.650;9.290;2023-05-07T07:52:13;4.95;;;2.60;;
57856;SDS011;43683;48.650;9.290;2023-05-07T07:54:39;4.55;;;2.70;;
57856;SDS011;43683;48.650;9.290;2023-05-07T07:57:05;4.38;;;2.28;;
57856;SDS011;43683;48.650;9.290;2023-05-07T07:59:30;3.03;;;2.30;;
57856;SDS011;43683;48.650;9.290;2023-05-07T08:01:56;4.70;;;2.53;;
57856;SDS011;43683;48.650;9.290;2023-05-07T08:04:22;3.28;;;2.00;;
57856;SDS011;43683;48.650;9.290;2023-05-07T08:06:47;3.78;;;2.53;;
57856;SDS011;43683;48.650;9.290;2023-05-07T08:09:13;3.60;;;2.65;;
57856;SDS011;43683;48.650;9.290;2023-05-07T08:11:39;4.57;;;2.83;;
57856;SDS011;43683;48.650;9.290;2023-05-07T08:14:04;5.68;;;2.63;;
57856;SDS011;43683;48.650;9.290;2023-05-07T08:16:30;3.05;;;2.30;;
57856;SDS011;43683;48.650;9.290;2023-05-07T08:18:55;6.70;;;2.50;;
57856;SDS011;43683;48.650;9.290;2023-05-07T08:21:22;2.85;;;2.28;;
57856;SDS011;43683;48.650;9.290;2023-05-07T08:23:48;3.72;;;2.70;;
57856;SDS011;43683;48.650;9.290;2023-05-07T08:26:13;3.85;;;2.60;;
57856;SDS011;43683;48.650;9.290;2023-05-07T08:28:39;3.00;;;2.30;;
57856;SDS011;43683;48.650;9.290;2023-05-07T08:31:05;3.30;;;2.42;;
57856;SDS011;43683;48.650;9.290;2023-05-07T08:33:30;4.15;;;2.40;;
57856;SDS011;43683;48.650;9.290;2023-05-07T08:35:56;3.53;;;2.30;;
57856;SDS011;43683;48.650;9.290;2023-05-07T08:38:22;3.03;;;2.55;;
57856;SDS011;43683;48.650;9.290;2023-05-07T08:40:47;4.18;;;2.30;;
57856;SDS011;43683;48.650;9.290;2023-05-07T08:43:13;3.10;;;2.30;;
57856;SDS011;43683;48.650;9.290;2023-05-07T08:45:42;3.17;;;2.08;;
57856;SDS011;43683;48.650;9.290;2023-05-07T08:48:16;2.90;;;1.88;;
57856;SDS011;43683;48.650;9.290;2023-05-07T08:50:42;3.63;;;2.33;;
57856;SDS011;43683;48.650;9.290;2023-05-07T08:53:08;2.88;;;2.25;;
57856;SDS011;43683;48.650;9.290;2023-05-07T08:55:34;2.95;;;2.22;;
57856;SDS011;43683;48.650;9.290;2023-05-07T08:57:59;3.47;;;2.00;;
57856;SDS011;43683;48.650;9.290;2023-05-07T09:00:26;2.83;;;2.40;;
57856;SDS011;43683;48.650;9.290;2023-05-07T09:02:52;2.50;;;2.13;;
57856;SDS011;43683;48.650;9.290;2023-05-07T09:05:18;3.28;;;2.30;;
57856;SDS011;43683;48.650;9.290;2023-05-07T09:07:44;3.08;;;2.10;;
57856;SDS011;43683;48.650;9.290;2023-05-07T09:10:10;3.25;;;2.17;;
57856;SDS011;43683;48.650;9.290;2023-05-07T09:12:36;2.17;;;1.75;;
57856;SDS011;43683;48.650;9.290;2023-05-07T09:15:02;3.15;;;2.03;;
57856;SDS011;43683;48.650;9.290;2023-05-07T09:17:28;2.33;;;1.80;;
57856;SDS011;43683;48.650;9.290;2023-05-07T09:19:54;2.70;;;2.05;;
57856;SDS011;43683;48.650;9.290;2023-05-07T09:22:20;2.22;;;1.50;;
57856;SDS011;43683;48.650;9.290;2023-05-07T09:24:49;1.73;;;1.55;;
57856;SDS011;43683;48.650;9.290;2023-05-07T09:27:16;2.20;;;1.80;;
57856;SDS011;43683;48.650;9.290;2023-05-07T09:29:43;2.85;;;1.95;;
57856;SDS011;43683;48.650;9.290;2023-05-07T09:32:09;3.30;;;1.83;;
57856;SDS011;43683;48.650;9.290;2023-05-07T09:34:35;3.67;;;1.70;;
57856;SDS011;43683;48.650;9.290;2023-05-07T09:37:01;2.45;;;1.52;;
57856;SDS011;43683;48.650;9.290;2023-05-07T09:39:43;3.42;;;1.67;;
57856;SDS011;43683;48.650;9.290;2023-05-07T09:42:11;3.17;;;1.63;;
57856;SDS011;43683;48.650;9.290;2023-05-07T09:44:37;18.70;;;2.28;;
57856;SDS011;43683;48.650;9.290;2023-05-07T09:47:06;3.10;;;2.00;;
57856;SDS011;43683;48.650;9.290;2023-05-07T09:49:36;2.78;;;1.80;;
57856;SDS011;43683;48.650;9.290;2023-05-07T09:52:02;2.15;;;1.40;;
57856;SDS011;43683;48.650;9.290;2023-05-07T09:54:31;3.00;;;1.60;;
57856;SDS011;43683;48.650;9.290;2023-05-07T09:56:59;3.38;;;1.70;;
57856;SDS011;43683;48.650;9.290;2023-05-07T09:59:27;2.95;;;1.70;;
57856;SDS011;43683;48.650;9.290;2023-05-07T10:01:55;3.65;;;1.67;;
57856;SDS011;43683;48.650;9.290;2023-05-07T10:04:23;7.82;;;1.70;;
57856;SDS011;43683;48.650;9.290;2023-05-07T10:09:15;2.70;;;1.90;;
57856;SDS011;43683;48.650;9.290;2023-05-07T10:11:42;2.72;;;1.92;;
57856;SDS011;43683;48.650;9.290;2023-05-07T10:14:08;2.13;;;1.88;;
57856;SDS011;43683;48.650;9.290;2023-05-07T10:16:35;2.60;;;1.85;;
57856;SDS011;43683;48.650;9.290;2023-05-07T10:21:31;2.55;;;1.67;;
57856;SDS011;43683;48.650;9.290;2023-05-07T10:24:05;2.58;;;1.77;;
57856;SDS011;43683;48.650;9.290;2023-05-07T10:26:38;2.10;;;1.60;;
57856;SDS011;43683;48.650;9.290;2023-05-07T10:29:14;2.00;;;1.77;;
57856;SDS011;43683;48.650;9.290;2023-05-07T10:31:48;3.08;;;2.05;;
57856;SDS011;43683;48.650;9.290;2023-05-07T10:34:16;2.83;;;1.73;;
57856;SDS011;43683;48.650;9.290;2023-05-07T10:36:46;2.38;;;1.60;;
57856;SDS011;43683;48.650;9.290;2023-05-07T10:39:12;5.43;;;1.92;;
57856;SDS011;43683;48.650;9.290;2023-05-07T10:41:38;1.97;;;1.67;;
57856;SDS011;43683;48.650;9.290;2023-05-07T10:44:04;3.27;;;1.97;;
57856;SDS011;43683;48.650;9.290;2023-05-07T10:46:30;3.40;;;1.80;;
57856;SDS011;43683;48.650;9.290;2023-05-07T10:51:25;2.70;;;1.53;;
57856;SDS011;43683;48.650;9.290;2023-05-07T10:56:35;2.10;;;1.60;;
57856;SDS011;43683;48.650;9.290;2023-05-07T11:01:55;2.13;;;1.77;;
57856;SDS011;43683;48.650;9.290;2023-05-07T11:04:27;2.58;;;1.52;;
57856;SDS011;43683;48.650;9.290;2023-05-07T11:12:46;4.38;;;1.63;;
57856;SDS011;43683;48.650;9.290;2023-05-07T11:15:09;2.28;;;1.50;;
57856;SDS011;43683;48.650;9.290;2023-05-07T11:17:57;1.70;;;1.45;;
57856;SDS011;43683;48.650;9.290;2023-05-07T11:26:05;2.33;;;1.38;;
57856;SDS011;43683;48.650;9.290;2023-05-07T11:28:39;3.25;;;1.55;;
57856;SDS011;43683;48.650;9.290;2023-05-07T11:31:05;2.05;;;1.40;;
57856;SDS011;43683;48.650;9.290;2023-05-07T11:33:31;2.47;;;1.60;;
57856;SDS011;43683;48.650;9.290;2023-05-07T11:35:57;2.10;;;1.30;;
57856;SDS011;43683;48.650;9.290;2023-05-07T11:38:24;2.47;;;1.30;;
57856;SDS011;43683;48.650;9.290;2023-05-07T11:43:16;4.15;;;1.40;;
57856;SDS011;43683;48.650;9.290;2023-05-07T11:45:42;1.50;;;1.10;;
57856;SDS011;43683;48.650;9.290;2023-05-07T11:48:08;2.03;;;1.60;;
57856;SDS011;43683;48.650;9.290;2023-05-07T11:50:33;2.87;;;1.63;;
57856;SDS011;43683;48.650;9.290;2023-05-07T11:52:59;2.00;;;1.40;;
57856;SDS011;43683;48.650;9.290;2023-05-07T11:55:24;3.13;;;1.40;;
57856;SDS011;43683;48.650;9.290;2023-05-07T11:57:51;2.05;;;1.38;;
57856;SDS011;43683;48.650;9.290;2023-05-07T12:00:16;2.57;;;1.30;;
57856;SDS011;43683;48.650;9.290;2023-05-07T12:02:43;3.63;;;1.57;;
57856;SDS011;43683;48.650;9.290;2023-05-07T12:05:10;1.85;;;1.48;;
57856;SDS011;43683;48.650;9.290;2023-05-07T12:07:35;3.30;;;1.73;;
57856;SDS011;43683;48.650;9.290;2023-05-07T12:10:05;3.13;;;1.47;;
57856;SDS011;43683;48.650;9.290;2023-05-07T12:12:37;1.83;;;1.50;;
57856;SDS011;43683;48.650;9.290;2023-05-07T12:15:04;2.88;;;1.70;;
57856;SDS011;43683;48.650;9.290;2023-05-07T12:17:30;22.13;;;2.30;;
57856;SDS011;43683;48.650;9.290;2023-05-07T12:19:56;2.60;;;1.33;;
57856;SDS011;43683;48.650;9.290;2023-05-07T12:22:21;1.17;;;1.08;;
57856;SDS011;43683;48.650;9.290;2023-05-07T12:24:48;1.33;;;1.05;;
57856;SDS011;43683;48.650;9.290;2023-05-07T12:27:21;1.20;;;1.10;;
57856;SDS011;43683;48.650;9.290;2023-05-07T12:29:47;1.70;;;1.17;;
57856;SDS011;43683;48.650;9.290;2023-05-07T12:32:13;2.77;;;1.00;;
57856;SDS011;43683;48.650;9.290;2023-05-07T12:34:40;2.22;;;1.00;;
57856;SDS011;43683;48.650;9.290;2023-05-07T12:37:06;2.40;;;1.45;;
57856;SDS011;43683;48.650;9.290;2023-05-07T12:39:31;3.40;;;1.80;;
57856;SDS011;43683;48.650;9.290;2023-05-07T12:42:00;4.35;;;2.20;;
57856;SDS011;43683;48.650;9.290;2023-05-07T12:44:29;2.20;;;1.55;;
57856;SDS011;43683;48.650;9.290;2023-05-07T12:46:56;3.15;;;1.92;;
57856;SDS011;43683;48.650;9.290;2023-05-07T12:49:22;5.28;;;2.17;;
57856;SDS011;43683;48.650;9.290;2023-05-07T12:51:48;2.60;;;1.90;;
57856;SDS011;43683;48.650;9.290;2023-05-07T12:54:33;2.55;;;2.00;;
57856;SDS011;43683;48.650;9.290;2023-05-07T12:57:02;2.88;;;2.00;;
57856;SDS011;43683;48.650;9.290;2023-05-07T12:59:41;2.90;;;2.25;;
57856;SDS011;43683;48.650;9.290;2023-05-07T13:02:07;3.47;;;2.53;;
57856;SDS011;43683;48.650;9.290;2023-05-07T13:04:33;4.95;;;2.38;;
57856;SDS011;43683;48.650;9.290;2023-05-07T13:07:00;3.97;;;1.65;;
57856;SDS011;43683;48.650;9.290;2023-05-07T13:09:26;2.90;;;1.73;;
57856;SDS011;43683;48.650;9.290;2023-05-07T13:11:52;3.67;;;1.67;;
57856;SDS011;43683;48.650;9.290;2023-05-07T13:14:18;4.35;;;1.70;;
57856;SDS011;43683;48.650;9.290;2023-05-07T13:16:45;2.38;;;1.60;;
57856;SDS011;43683;48.650;9.290;2023-05-07T13:19:11;1.90;;;1.40;;
57856;SDS011;43683;48.650;9.290;2023-05-07T13:21:37;1.83;;;1.20;;
57856;SDS011;43683;48.650;9.290;2023-05-07T13:24:02;2.42;;;1.00;;
57856;SDS011;43683;48.650;9.290;2023-05-07T13:26:29;1.40;;;1.23;;
57856;SDS011;43683;48.650;9.290;2023-05-07T13:28:56;4.38;;;1.75;;
57856;SDS011;43683;48.650;9.290;2023-05-07T13:31:21;2.20;;;1.20;;
57856;SDS011;43683;48.650;9.290;2023-05-07T13:33:47;2.75;;;1.27;;
57856;SDS011;43683;48.650;9.290;2023-05-07T13:36:12;2.47;;;1.30;;
57856;SDS011;43683;48.650;9.290;2023-05-07T13:38:41;4.20;;;1.60;;
57856;SDS011;43683;48.650;9.290;2023-05-07T13:41:06;2.38;;;1.50;;
57856;SDS011;43683;48.650;9.290;2023-05-07T13:43:32;4.82;;;1.85;;
57856;SDS011;43683;48.650;9.290;2023-05-07T13:45:58;2.97;;;1.88;;
57856;SDS011;43683;48.650;9.290;2023-05-07T13:48:24;4.40;;;2.00;;
57856;SDS011;43683;48.650;9.290;2023-05-07T13:50:50;3.28;;;1.90;;
57856;SDS011;43683;48.650;9.290;2023-05-07T13:53:16;4.45;;;1.85;;
57856;SDS011;43683;48.650;9.290;2023-05-07T13:55:43;4.90;;;1.98;;
57856;SDS011;43683;48.650;9.290;2023-05-07T13:58:09;1.90;;;1.38;;
57856;SDS011;43683;48.650;9.290;2023-05-07T14:00:35;3.35;;;1.83;;
57856;SDS011;43683;48.650;9.290;2023-05-07T14:03:00;4.88;;;1.80;;
57856;SDS011;43683;48.650;9.290;2023-05-07T14:05:26;4.40;;;1.80;;
57856;SDS011;43683;48.650;9.290;2023-05-07T14:07:53;2.53;;;1.65;;
57856;SDS011;43683;48.650;9.290;2023-05-07T14:10:22;3.50;;;1.90;;
57856;SDS011;43683;48.650;9.290;2023-05-07T14:12:47;4.05;;;1.98;;
57856;SDS011;43683;48.650;9.290;2023-05-07T14:15:13;2.38;;;1.60;;
57856;SDS011;43683;48.650;9.290;2023-05-07T14:17:39;2.20;;;1.80;;
57856;SDS011;43683;48.650;9.290;2023-05-07T14:20:04;2.40;;;1.88;;
57856;SDS011;43683;48.650;9.290;2023-05-07T14:22:31;2.55;;;1.75;;
57856;SDS011;43683;48.650;9.290;2023-05-07T14:24:57;2.25;;;1.90;;
57856;SDS011;43683;48.650;9.290;2023-05-07T14:27:22;3.75;;;1.92;;
57856;SDS011;43683;48.650;9.290;2023-05-07T14:29:48;3.25;;;1.88;;
57856;SDS011;43683;48.650;9.290;2023-05-07T14:32:16;3.90;;;2.25;;
57856;SDS011;43683;48.650;9.290;2023-05-07T14:34:43;5.85;;;2.53;;
57856;SDS011;43683;48.650;9.290;2023-05-07T14:37:08;5.35;;;2.47;;
57856;SDS011;43683;48.650;9.290;2023-05-07T14:39:35;4.40;;;2.47;;
57856;SDS011;43683;48.650;9.290;2023-05-07T14:42:01;3.20;;;2.55;;
57856;SDS011;43683;48.650;9.290;2023-05-07T14:44:27;5.25;;;2.67;;
57856;SDS011;43683;48.650;9.290;2023-05-07T14:46:52;5.50;;;2.95;;
57856;SDS011;43683;48.650;9.290;2023-05-07T14:49:18;5.80;;;2.80;;
57856;SDS011;43683;48.650;9.290;2023-05-07T14:51:44;5.90;;;3.30;;
57856;SDS011;43683;48.650;9.290;2023-05-07T14:54:10;8.67;;;4.20;;
57856;SDS011;43683;48.650;9.290;2023-05-07T14:56:36;7.00;;;3.60;;
57856;SDS011;43683;48.650;9.290;2023-05-07T14:59:02;6.78;;;3.42;;
57856;SDS011;43683;48.650;9.290;2023-05-07T15:01:28;8.20;;;3.28;;
57856;SDS011;43683;48.650;9.290;2023-05-07T15:03:54;6.53;;;3.10;;
57856;SDS011;43683;48.650;9.290;2023-05-07T15:06:20;6.90;;;3.33;;
57856;SDS011;43683;48.650;9.290;2023-05-07T15:08:46;7.18;;;3.65;;
57856;SDS011;43683;48.650;9.290;2023-05-07T15:11:13;7.97;;;4.03;;